Mahwah, NJ

11:35 AM EDT on September 16, 2014 (GMT -0400)
KNJRAMSE5 | Change Station
CLOSE
Current Station
Personal Weather Station
Location: Ramsey, NJ
Elevation: 357 ft
Nearby Weather Stations

Elev 357 ft 41.06 °N, 74.14 °W | Updated 1 second ago

Overcast
Overcast
56.7 °F
Feels Like 56.7 °F
N
0.0
Wind Variable Wind from West
Gusts 0.0 mph

Today
High -- | Low -- °F
--% Chance of Precip.
Yesterday
High -- | Low -- °F
Precip. -- in
6:38 AM 7:04 PM
Last Quarter, 44% visible
Pressure 30.01 in
Visibility 9.0 miles
Clouds Mostly Cloudy 700 ft
Mostly Cloudy 3100 ft
Dew Point 54 °F
Humidity 89%
Rainfall 0.30 in
Snow Depth Not available.
UV 4 out of 12
Pollen 3.80 out of 12
Air Quality Not available.
Flu Activity Not available.
SPECI KCDW 161530Z 07004KT 9SM BKN007 BKN031 17/13 A3001 RMK AO2 T01670133

More Conditions Fewer Conditions

Pressure 30.01 in
Visibility 9.0 miles
Clouds Mostly Cloudy 700 ft
Mostly Cloudy 3100 ft
Dew Point 54 °F
Humidity 89%
Rainfall 0.30 in
Snow Depth Not available.
UV 4 out of 12
Pollen 3.80 out of 12
Air Quality Not available.
Flu Activity Not available.
SPECI KCDW 161530Z 07004KT 9SM BKN007 BKN031 17/13 A3001 RMK AO2 T01670133

More Conditions Fewer Conditions

10-Day Weather Forecast

Almanac

Astronomy

Sep. 16, 2014 Rise Set
Actual Time 6:38 AM EDT 7:04 PM EDT
Civil Twilight 6:10 AM EDT 7:31 PM EDT
Nautical Twilight 5:37 AM EDT 8:04 PM EDT
Astronomical Twilight 5:04 AM EDT 8:37 PM EDT
Moon No Moon Rise 2:27 PM EDT
Length of Visible Light 13h 21m
Length of Day
12h 26m
Tomorrow will be 2m 42s shorter.
Last Quarter, 44% of the Moon is Illuminated
Today
Last Quarter
Sep 24
New
Oct 1
First Quarter
Oct 8
Full
Oct 15
Last Quarter

Today's Extremes

State Highs State Lows

Community

WunderPhotos

Upload Photos

1,753,810 photos uploaded!

Nearby

Snow Depth

Station Depth Elevation
No new snow has been reported.

Earthquake Activity

City Distance Mag. Time & Date
No recent earthquake activity has been reported nearby.
Minimum magnitude displayed is 2.5.

Coastal Water Temperatures

Place Temperature
Kings Point, NY 69.1 °F
Bridgeport, CT 69.1 °F

Nearby Weather Stations